sensor_id;sensor_type;location;lat;lon;timestamp;pressure;altitude;pressure_sealevel;temperature;humidity
25350;BME280;13302;48.796;11.978;2023-05-07T00:01:00;96820.03;;;14.21;39.29
25350;BME280;13302;48.796;11.978;2023-05-07T00:03:48;96824.81;;;14.21;38.99
25350;BME280;13302;48.796;11.978;2023-05-07T00:06:35;96825.19;;;14.19;38.92
25350;BME280;13302;48.796;11.978;2023-05-07T00:09:22;96829.50;;;14.17;39.24
25350;BME280;13302;48.796;11.978;2023-05-07T00:12:09;96831.47;;;14.16;39.03
25350;BME280;13302;48.796;11.978;2023-05-07T00:14:57;96829.91;;;14.15;38.58
25350;BME280;13302;48.796;11.978;2023-05-07T00:17:44;96824.25;;;14.12;38.82
25350;BME280;13302;48.796;11.978;2023-05-07T00:20:31;96832.16;;;14.10;39.03
25350;BME280;13302;48.796;11.978;2023-05-07T00:23:21;96829.75;;;14.08;39.03
25350;BME280;13302;48.796;11.978;2023-05-07T00:26:08;96828.53;;;14.06;38.99
25350;BME280;13302;48.796;11.978;2023-05-07T00:28:55;96824.53;;;14.03;39.07
25350;BME280;13302;48.796;11.978;2023-05-07T00:31:42;96824.91;;;14.02;39.06
25350;BME280;13302;48.796;11.978;2023-05-07T00:34:29;96816.91;;;14.00;39.00
25350;BME280;13302;48.796;11.978;2023-05-07T00:37:16;96821.69;;;14.00;38.64
25350;BME280;13302;48.796;11.978;2023-05-07T00:40:04;96834.34;;;13.97;38.69
25350;BME280;13302;48.796;11.978;2023-05-07T00:42:54;96825.56;;;13.95;38.50
25350;BME280;13302;48.796;11.978;2023-05-07T00:45:45;96829.56;;;13.94;38.49
25350;BME280;13302;48.796;11.978;2023-05-07T00:48:32;96819.56;;;13.90;38.66
25350;BME280;13302;48.796;11.978;2023-05-07T00:51:19;96823.09;;;13.87;38.57
25350;BME280;13302;48.796;11.978;2023-05-07T00:54:07;96821.84;;;13.84;38.51
25350;BME280;13302;48.796;11.978;2023-05-07T00:56:54;96822.22;;;13.83;38.67
25350;BME280;13302;48.796;11.978;2023-05-07T00:59:42;96839.63;;;13.79;38.66
25350;BME280;13302;48.796;11.978;2023-05-07T01:02:29;96834.47;;;13.78;38.75
25350;BME280;13302;48.796;11.978;2023-05-07T01:05:17;96834.00;;;13.76;38.74
25350;BME280;13302;48.796;11.978;2023-05-07T01:08:06;96829.63;;;13.75;38.93
25350;BME280;13302;48.796;11.978;2023-05-07T01:10:55;96826.44;;;13.73;38.48
25350;BME280;13302;48.796;11.978;2023-05-07T01:13:42;96827.19;;;13.70;38.26
25350;BME280;13302;48.796;11.978;2023-05-07T01:16:30;96831.06;;;13.65;38.66
25350;BME280;13302;48.796;11.978;2023-05-07T01:19:18;96832.59;;;13.63;38.71
25350;BME280;13302;48.796;11.978;2023-05-07T01:22:09;96836.13;;;13.60;38.70
25350;BME280;13302;48.796;11.978;2023-05-07T01:25:09;96832.94;;;13.58;38.59
25350;BME280;13302;48.796;11.978;2023-05-07T01:28:01;96835.28;;;13.56;38.81
25350;BME280;13302;48.796;11.978;2023-05-07T01:31:01;96836.84;;;13.53;39.02
25350;BME280;13302;48.796;11.978;2023-05-07T01:33:50;96826.53;;;13.54;39.05
25350;BME280;13302;48.796;11.978;2023-05-07T01:36:38;96826.06;;;13.52;38.73
25350;BME280;13302;48.796;11.978;2023-05-07T01:39:28;96825.66;;;13.50;38.41
25350;BME280;13302;48.796;11.978;2023-05-07T01:42:15;96825.22;;;13.48;38.56
25350;BME280;13302;48.796;11.978;2023-05-07T01:45:03;96822.03;;;13.46;38.57
25350;BME280;13302;48.796;11.978;2023-05-07T01:47:50;96825.16;;;13.44;38.70
25350;BME280;13302;48.796;11.978;2023-05-07T01:50:38;96819.97;;;13.43;39.03
25350;BME280;13302;48.796;11.978;2023-05-07T01:53:27;96825.09;;;13.41;38.97
25350;BME280;13302;48.796;11.978;2023-05-07T01:56:14;96817.94;;;13.40;39.10
25350;BME280;13302;48.796;11.978;2023-05-07T01:59:02;96829.03;;;13.40;38.98
25350;BME280;13302;48.796;11.978;2023-05-07T02:01:49;96827.81;;;13.37;39.16
25350;BME280;13302;48.796;11.978;2023-05-07T02:04:36;96821.47;;;13.37;39.36
25350;BME280;13302;48.796;11.978;2023-05-07T02:07:23;96823.00;;;13.34;39.49
25350;BME280;13302;48.796;11.978;2023-05-07T02:10:10;96823.78;;;13.34;39.56
25350;BME280;13302;48.796;11.978;2023-05-07T02:12:58;96825.41;;;13.36;39.62
25350;BME280;13302;48.796;11.978;2023-05-07T02:15:46;96820.66;;;13.36;39.72
25350;BME280;13302;48.796;11.978;2023-05-07T02:18:37;96815.09;;;13.36;39.55
25350;BME280;13302;48.796;11.978;2023-05-07T02:21:24;96828.59;;;13.38;39.43
25350;BME280;13302;48.796;11.978;2023-05-07T02:24:12;96819.50;;;13.37;39.56
25350;BME280;13302;48.796;11.978;2023-05-07T02:26:59;96824.25;;;13.37;39.42
25350;BME280;13302;48.796;11.978;2023-05-07T02:29:46;96829.78;;;13.37;39.32
25350;BME280;13302;48.796;11.978;2023-05-07T02:32:33;96815.09;;;13.36;39.30
25350;BME280;13302;48.796;11.978;2023-05-07T02:35:20;96813.50;;;13.35;39.42
25350;BME280;13302;48.796;11.978;2023-05-07T02:38:07;96817.88;;;13.36;39.62
25350;BME280;13302;48.796;11.978;2023-05-07T02:40:58;96809.09;;;13.34;39.35
25350;BME280;13302;48.796;11.978;2023-05-07T02:43:45;96815.84;;;13.33;39.00
25350;BME280;13302;48.796;11.978;2023-05-07T02:46:32;96815.84;;;13.33;39.12
25350;BME280;13302;48.796;11.978;2023-05-07T02:49:24;96814.25;;;13.32;38.81
25350;BME280;13302;48.796;11.978;2023-05-07T02:52:11;96821.31;;;13.29;38.57
25350;BME280;13302;48.796;11.978;2023-05-07T02:57:45;96808.44;;;13.21;38.75
25350;BME280;13302;48.796;11.978;2023-05-07T03:00:32;96819.50;;;13.18;38.50
25350;BME280;13302;48.796;11.978;2023-05-07T03:03:32;96816.66;;;13.14;38.77
25350;BME280;13302;48.796;11.978;2023-05-07T03:06:19;96813.03;;;13.10;38.99
25350;BME280;13302;48.796;11.978;2023-05-07T03:09:07;96814.56;;;13.08;39.01
25350;BME280;13302;48.796;11.978;2023-05-07T03:11:54;96810.19;;;13.07;38.79
25350;BME280;13302;48.796;11.978;2023-05-07T03:14:41;96806.97;;;13.05;38.76
25350;BME280;13302;48.796;11.978;2023-05-07T03:17:28;96816.84;;;13.02;38.90
25350;BME280;13302;48.796;11.978;2023-05-07T03:20:15;96821.97;;;13.00;39.11
25350;BME280;13302;48.796;11.978;2023-05-07T03:23:02;96810.06;;;13.00;39.15
25350;BME280;13302;48.796;11.978;2023-05-07T03:25:49;96816.78;;;12.99;39.25
25350;BME280;13302;48.796;11.978;2023-05-07T03:28:37;96812.03;;;12.99;39.37
25350;BME280;13302;48.796;11.978;2023-05-07T03:31:27;96814.81;;;12.99;39.20
25350;BME280;13302;48.796;11.978;2023-05-07T03:34:14;96817.59;;;12.99;39.10
25350;BME280;13302;48.796;11.978;2023-05-07T03:37:03;96815.97;;;12.98;38.95
25350;BME280;13302;48.796;11.978;2023-05-07T03:39:50;96814.34;;;12.97;39.25
25350;BME280;13302;48.796;11.978;2023-05-07T03:42:38;96814.34;;;12.97;39.05
25350;BME280;13302;48.796;11.978;2023-05-07T03:45:25;96817.13;;;12.97;38.97
25350;BME280;13302;48.796;11.978;2023-05-07T03:48:29;96826.66;;;12.96;38.71
25350;BME280;13302;48.796;11.978;2023-05-07T03:51:18;96834.53;;;12.94;38.88
25350;BME280;13302;48.796;11.978;2023-05-07T03:54:05;96831.31;;;12.92;38.82
25350;BME280;13302;48.796;11.978;2023-05-07T03:56:53;96830.47;;;12.88;38.85
25350;BME280;13302;48.796;11.978;2023-05-07T03:59:40;96844.69;;;12.86;38.69
25350;BME280;13302;48.796;11.978;2023-05-07T04:02:28;96845.03;;;12.85;38.76
25350;BME280;13302;48.796;11.978;2023-05-07T04:05:16;96845.44;;;12.83;38.78
25350;BME280;13302;48.796;11.978;2023-05-07T04:08:05;96851.31;;;12.82;39.11
25350;BME280;13302;48.796;11.978;2023-05-07T04:10:59;96848.91;;;12.80;38.72
25350;BME280;13302;48.796;11.978;2023-05-07T04:13:50;96853.69;;;12.80;38.87
25350;BME280;13302;48.796;11.978;2023-05-07T04:16:40;96844.91;;;12.78;38.80
25350;BME280;13302;48.796;11.978;2023-05-07T04:19:28;96849.28;;;12.79;38.82
25350;BME280;13302;48.796;11.978;2023-05-07T04:22:15;96844.91;;;12.78;38.55
25350;BME280;13302;48.796;11.978;2023-05-07T04:25:03;96843.69;;;12.75;39.01
25350;BME280;13302;48.796;11.978;2023-05-07T04:27:51;96838.47;;;12.74;38.83
25350;BME280;13302;48.796;11.978;2023-05-07T04:30:39;96845.19;;;12.73;39.17
25350;BME280;13302;48.796;11.978;2023-05-07T04:33:29;96837.25;;;12.71;39.29
25350;BME280;13302;48.796;11.978;2023-05-07T04:36:17;96838.84;;;12.72;39.62
25350;BME280;13302;48.796;11.978;2023-05-07T04:39:17;96841.25;;;12.74;40.07
25350;BME280;13302;48.796;11.978;2023-05-07T04:42:06;96846.06;;;12.77;39.96
25350;BME280;13302;48.796;11.978;2023-05-07T04:44:55;96844.56;;;12.79;40.09
25350;BME280;13302;48.796;11.978;2023-05-07T04:47:43;96844.97;;;12.81;40.28
25350;BME280;13302;48.796;11.978;2023-05-07T04:50:30;96845.44;;;12.83;40.39
25350;BME280;13302;48.796;11.978;2023-05-07T04:53:21;96853.81;;;12.87;40.32
25350;BME280;13302;48.796;11.978;2023-05-07T04:56:10;96850.28;;;12.90;40.37
25350;BME280;13302;48.796;11.978;2023-05-07T04:59:00;96853.13;;;12.94;40.58
25350;BME280;13302;48.796;11.978;2023-05-07T05:01:48;96852.03;;;12.98;41.09
25350;BME280;13302;48.796;11.978;2023-05-07T05:04:36;96850.59;;;13.04;41.19
25350;BME280;13302;48.796;11.978;2023-05-07T05:07:24;96851.06;;;13.10;40.97
25350;BME280;13302;48.796;11.978;2023-05-07T05:10:11;96852.38;;;13.16;41.11
25350;BME280;13302;48.796;11.978;2023-05-07T05:13:01;96852.09;;;13.21;41.06
25350;BME280;13302;48.796;11.978;2023-05-07T05:15:48;96850.19;;;13.25;41.70
25350;BME280;13302;48.796;11.978;2023-05-07T05:18:36;96857.06;;;13.31;41.39
25350;BME280;13302;48.796;11.978;2023-05-07T05:21:24;96854.72;;;13.33;41.71
25350;BME280;13302;48.796;11.978;2023-05-07T05:24:16;96868.66;;;13.37;41.56
25350;BME280;13302;48.796;11.978;2023-05-07T05:27:03;96872.25;;;13.37;41.61
25350;BME280;13302;48.796;11.978;2023-05-07T05:29:51;96876.25;;;13.40;41.68
25350;BME280;13302;48.796;11.978;2023-05-07T05:32:38;96877.13;;;13.44;41.81
25350;BME280;13302;48.796;11.978;2023-05-07T05:35:26;96877.97;;;13.48;42.09
25350;BME280;13302;48.796;11.978;2023-05-07T05:38:13;96874.91;;;13.53;42.15
25350;BME280;13302;48.796;11.978;2023-05-07T05:41:00;96878.97;;;13.59;42.18
25350;BME280;13302;48.796;11.978;2023-05-07T05:43:49;96879.81;;;13.63;42.52
25350;BME280;13302;48.796;11.978;2023-05-07T05:46:37;96873.97;;;13.68;42.69
25350;BME280;13302;48.796;11.978;2023-05-07T05:49:25;96874.88;;;13.75;42.32
25350;BME280;13302;48.796;11.978;2023-05-07T05:52:13;96865.88;;;13.82;42.41
25350;BME280;13302;48.796;11.978;2023-05-07T05:55:01;96870.38;;;13.90;42.43
25350;BME280;13302;48.796;11.978;2023-05-07T05:57:48;96869.31;;;13.98;42.11
25350;BME280;13302;48.796;11.978;2023-05-07T06:00:35;96869.88;;;14.07;42.48
25350;BME280;13302;48.796;11.978;2023-05-07T06:03:24;96870.41;;;14.16;42.12
25350;BME280;13302;48.796;11.978;2023-05-07T06:06:12;96867.00;;;14.27;42.07
25350;BME280;13302;48.796;11.978;2023-05-07T06:09:02;96869.50;;;14.35;42.03
25350;BME280;13302;48.796;11.978;2023-05-07T06:11:56;96874.78;;;14.44;41.93
25350;BME280;13302;48.796;11.978;2023-05-07T06:14:46;96874.53;;;14.52;41.74
25350;BME280;13302;48.796;11.978;2023-05-07T06:17:34;96875.81;;;14.62;42.05
25350;BME280;13302;48.796;11.978;2023-05-07T06:20:21;96877.91;;;14.68;41.58
25350;BME280;13302;48.796;11.978;2023-05-07T06:23:09;96886.72;;;14.74;41.72
25350;BME280;13302;48.796;11.978;2023-05-07T06:25:57;96893.56;;;14.80;41.41
25350;BME280;13302;48.796;11.978;2023-05-07T06:28:49;96888.09;;;14.87;41.63
25350;BME280;13302;48.796;11.978;2023-05-07T06:31:36;96889.75;;;14.92;41.27
25350;BME280;13302;48.796;11.978;2023-05-07T06:34:27;96895.00;;;14.97;41.03
25350;BME280;13302;48.796;11.978;2023-05-07T06:37:14;96892.66;;;15.02;41.28
25350;BME280;13302;48.796;11.978;2023-05-07T06:40:10;96896.28;;;15.06;41.11
25350;BME280;13302;48.796;11.978;2023-05-07T06:42:59;96893.19;;;15.11;41.38
25350;BME280;13302;48.796;11.978;2023-05-07T06:46:06;96896.44;;;15.17;41.28
25350;BME280;13302;48.796;11.978;2023-05-07T06:48:54;96898.09;;;15.22;41.00
25350;BME280;13302;48.796;11.978;2023-05-07T06:51:41;96896.97;;;15.30;40.88
25350;BME280;13302;48.796;11.978;2023-05-07T06:54:28;96904.59;;;15.36;40.87
25350;BME280;13302;48.796;11.978;2023-05-07T06:57:16;96906.69;;;15.43;40.91
25350;BME280;13302;48.796;11.978;2023-05-07T07:00:04;96903.97;;;15.50;41.09
25350;BME280;13302;48.796;11.978;2023-05-07T07:03:00;96909.59;;;15.57;41.13
25350;BME280;13302;48.796;11.978;2023-05-07T07:05:51;96913.66;;;15.63;40.86
25350;BME280;13302;48.796;11.978;2023-05-07T07:08:38;96902.97;;;15.69;40.91
25350;BME280;13302;48.796;11.978;2023-05-07T07:11:27;96905.84;;;15.76;40.71
25350;BME280;13302;48.796;11.978;2023-05-07T07:14:14;96912.66;;;15.82;40.91
25350;BME280;13302;48.796;11.978;2023-05-07T07:17:07;96910.72;;;15.89;40.87
25350;BME280;13302;48.796;11.978;2023-05-07T07:19:54;96907.22;;;15.96;40.71
25350;BME280;13302;48.796;11.978;2023-05-07T07:22:42;96915.19;;;15.97;40.30
25350;BME280;13302;48.796;11.978;2023-05-07T07:25:29;96907.25;;;15.99;40.60
25350;BME280;13302;48.796;11.978;2023-05-07T07:28:17;96913.22;;;16.01;40.38
25350;BME280;13302;48.796;11.978;2023-05-07T07:31:04;96925.59;;;16.04;40.35
25350;BME280;13302;48.796;11.978;2023-05-07T07:33:51;96927.63;;;16.07;40.63
25350;BME280;13302;48.796;11.978;2023-05-07T07:36:39;96923.25;;;16.09;40.47
25350;BME280;13302;48.796;11.978;2023-05-07T07:39:35;96918.91;;;16.12;40.71
25350;BME280;13302;48.796;11.978;2023-05-07T07:42:25;96912.53;;;16.15;40.75
25350;BME280;13302;48.796;11.978;2023-05-07T07:45:13;96914.56;;;16.22;40.76
25350;BME280;13302;48.796;11.978;2023-05-07T07:48:04;96924.19;;;16.28;40.79
25350;BME280;13302;48.796;11.978;2023-05-07T07:50:55;96921.44;;;16.31;40.85
25350;BME280;13302;48.796;11.978;2023-05-07T07:53:42;96919.91;;;16.37;40.76
25350;BME280;13302;48.796;11.978;2023-05-07T07:56:32;96915.50;;;16.40;40.67
25350;BME280;13302;48.796;11.978;2023-05-07T07:59:20;96916.38;;;16.44;40.83
25350;BME280;13302;48.796;11.978;2023-05-07T08:02:09;96917.19;;;16.48;40.59
25350;BME280;13302;48.796;11.978;2023-05-07T08:04:56;96921.59;;;16.49;40.86
25350;BME280;13302;48.796;11.978;2023-05-07T08:07:44;96923.22;;;16.53;40.76
25350;BME280;13302;48.796;11.978;2023-05-07T08:10:32;96926.84;;;16.58;40.60
25350;BME280;13302;48.796;11.978;2023-05-07T08:13:27;96926.84;;;16.61;40.79
25350;BME280;13302;48.796;11.978;2023-05-07T08:16:14;96931.28;;;16.66;40.64
25350;BME280;13302;48.796;11.978;2023-05-07T08:19:02;96932.09;;;16.70;40.53
25350;BME280;13302;48.796;11.978;2023-05-07T08:21:49;96938.50;;;16.74;40.85
25350;BME280;13302;48.796;11.978;2023-05-07T08:24:37;96938.53;;;16.77;40.77
25350;BME280;13302;48.796;11.978;2023-05-07T08:27:23;96935.75;;;16.81;40.50
25350;BME280;13302;48.796;11.978;2023-05-07T08:30:11;96930.16;;;16.84;40.55
25350;BME280;13302;48.796;11.978;2023-05-07T08:33:00;96934.16;;;16.87;40.66
25350;BME280;13302;48.796;11.978;2023-05-07T08:35:47;96944.56;;;16.90;40.56
25350;BME280;13302;48.796;11.978;2023-05-07T08:38:35;96937.81;;;16.94;40.83
25350;BME280;13302;48.796;11.978;2023-05-07T08:41:22;96940.63;;;16.98;40.53
25350;BME280;13302;48.796;11.978;2023-05-07T08:44:12;96939.84;;;17.01;40.64
25350;BME280;13302;48.796;11.978;2023-05-07T08:47:01;96933.47;;;17.04;40.69
25350;BME280;13302;48.796;11.978;2023-05-07T08:49:51;96928.69;;;17.08;40.31
25350;BME280;13302;48.796;11.978;2023-05-07T08:52:40;96934.69;;;17.10;40.54
25350;BME280;13302;48.796;11.978;2023-05-07T08:55:28;96941.94;;;17.15;40.41
25350;BME280;13302;48.796;11.978;2023-05-07T08:58:16;96943.13;;;17.21;40.57
25350;BME280;13302;48.796;11.978;2023-05-07T09:01:07;96941.16;;;17.25;40.70
25350;BME280;13302;48.796;11.978;2023-05-07T09:03:57;96945.56;;;17.29;40.53
25350;BME280;13302;48.796;11.978;2023-05-07T09:06:46;96942.41;;;17.34;40.55
25350;BME280;13302;48.796;11.978;2023-05-07T09:09:35;96936.81;;;17.38;40.57
25350;BME280;13302;48.796;11.978;2023-05-07T09:12:23;96934.03;;;17.41;40.40
25350;BME280;13302;48.796;11.978;2023-05-07T09:15:10;96936.84;;;17.45;40.33
25350;BME280;13302;48.796;11.978;2023-05-07T09:18:00;96930.88;;;17.50;40.58
25350;BME280;13302;48.796;11.978;2023-05-07T09:20:52;96928.09;;;17.54;40.40
25350;BME280;13302;48.796;11.978;2023-05-07T09:23:41;96929.69;;;17.58;40.22
25350;BME280;13302;48.796;11.978;2023-05-07T09:26:29;96926.91;;;17.62;40.22
25350;BME280;13302;48.796;11.978;2023-05-07T09:29:16;96926.53;;;17.63;40.23
25350;BME280;13302;48.796;11.978;2023-05-07T09:32:05;96933.31;;;17.66;40.46
25350;BME280;13302;48.796;11.978;2023-05-07T09:34:53;96930.50;;;17.69;40.27
25350;BME280;13302;48.796;11.978;2023-05-07T09:37:43;96921.75;;;17.74;40.49
25350;BME280;13302;48.796;11.978;2023-05-07T09:40:30;96919.75;;;17.78;40.55
25350;BME280;13302;48.796;11.978;2023-05-07T09:43:22;96920.16;;;17.84;40.55
25350;BME280;13302;48.796;11.978;2023-05-07T09:46:15;96925.78;;;17.91;40.34
25350;BME280;13302;48.796;11.978;2023-05-07T09:49:13;96928.19;;;17.96;40.40
25350;BME280;13302;48.796;11.978;2023-05-07T09:52:06;96925.41;;;18.03;40.41
25350;BME280;13302;48.796;11.978;2023-05-07T09:54:59;96926.19;;;18.11;40.39
25350;BME280;13302;48.796;11.978;2023-05-07T09:57:52;96919.41;;;18.15;40.47
25350;BME280;13302;48.796;11.978;2023-05-07T10:00:41;96929.00;;;18.25;40.26
25350;BME280;13302;48.796;11.978;2023-05-07T10:03:34;96928.19;;;18.31;40.31
25350;BME280;13302;48.796;11.978;2023-05-07T10:06:25;96926.19;;;18.39;39.95
25350;BME280;13302;48.796;11.978;2023-05-07T10:09:13;96928.19;;;18.46;39.64
25350;BME280;13302;48.796;11.978;2023-05-07T10:12:00;96925.03;;;18.54;39.94
25350;BME280;13302;48.796;11.978;2023-05-07T10:14:50;96921.81;;;18.59;39.52
25350;BME280;13302;48.796;11.978;2023-05-07T10:17:39;96920.59;;;18.67;39.56
25350;BME280;13302;48.796;11.978;2023-05-07T10:20:28;96915.38;;;18.73;39.68
25350;BME280;13302;48.796;11.978;2023-05-07T10:23:21;96916.16;;;18.80;39.80
25350;BME280;13302;48.796;11.978;2023-05-07T10:26:12;96921.34;;;18.89;39.56
25350;BME280;13302;48.796;11.978;2023-05-07T10:29:07;96906.53;;;18.96;39.65
25350;BME280;13302;48.796;11.978;2023-05-07T10:35:21;96913.69;;;19.07;39.26
25350;BME280;13302;48.796;11.978;2023-05-07T10:38:09;96916.44;;;19.14;38.84
25350;BME280;13302;48.796;11.978;2023-05-07T10:40:59;96902.84;;;19.20;38.79
25350;BME280;13302;48.796;11.978;2023-05-07T10:43:48;96905.25;;;19.25;38.92
25350;BME280;13302;48.796;11.978;2023-05-07T10:47:05;96903.22;;;19.25;38.57
25350;BME280;13302;48.796;11.978;2023-05-07T11:02:11;96892.69;;;19.47;38.27
25350;BME280;13302;48.796;11.978;2023-05-07T11:05:21;96891.09;;;19.46;37.92
25350;BME280;13302;48.796;11.978;2023-05-07T11:08:23;96901.50;;;19.49;37.93
25350;BME280;13302;48.796;11.978;2023-05-07T11:17:34;96887.03;;;19.58;37.51
25350;BME280;13302;48.796;11.978;2023-05-07T11:23:59;96896.66;;;19.57;37.02
25350;BME280;13302;48.796;11.978;2023-05-07T11:26:53;96891.81;;;19.61;37.26
25350;BME280;13302;48.796;11.978;2023-05-07T11:29:46;96889.81;;;19.61;36.97
25350;BME280;13302;48.796;11.978;2023-05-07T11:32:34;96885.78;;;19.66;36.64
25350;BME280;13302;48.796;11.978;2023-05-07T11:35:22;96887.75;;;19.69;37.04
25350;BME280;13302;48.796;11.978;2023-05-07T11:38:12;96893.34;;;19.72;37.35
25350;BME280;13302;48.796;11.978;2023-05-07T11:41:00;96891.28;;;19.80;37.11
25350;BME280;13302;48.796;11.978;2023-05-07T11:43:56;96880.88;;;19.84;37.16
25350;BME280;13302;48.796;11.978;2023-05-07T11:46:43;96891.25;;;19.91;37.04
25350;BME280;13302;48.796;11.978;2023-05-07T11:49:31;96880.81;;;19.95;36.79
25350;BME280;13302;48.796;11.978;2023-05-07T11:52:20;96892.00;;;19.98;36.78
25350;BME280;13302;48.796;11.978;2023-05-07T11:55:08;96884.75;;;20.01;36.35
25350;BME280;13302;48.796;11.978;2023-05-07T11:57:55;96887.97;;;20.03;36.47
25350;BME280;13302;48.796;11.978;2023-05-07T12:00:48;96891.13;;;20.05;36.60
25350;BME280;13302;48.796;11.978;2023-05-07T12:03:37;96890.69;;;20.10;36.26
25350;BME280;13302;48.796;11.978;2023-05-07T12:06:24;96881.44;;;20.13;36.37
25350;BME280;13302;48.796;11.978;2023-05-07T12:09:12;96887.44;;;20.15;36.30
25350;BME280;13302;48.796;11.978;2023-05-07T12:12:03;96885.00;;;20.17;36.32
25350;BME280;13302;48.796;11.978;2023-05-07T12:14:50;96882.16;;;20.21;36.13
25350;BME280;13302;48.796;11.978;2023-05-07T12:17:37;96886.19;;;20.23;36.08
25350;BME280;13302;48.796;11.978;2023-05-07T12:20:25;96885.75;;;20.25;35.84
25350;BME280;13302;48.796;11.978;2023-05-07T12:23:12;96880.13;;;20.25;35.67
25350;BME280;13302;48.796;11.978;2023-05-07T12:26:00;96885.38;;;20.23;35.54
25350;BME280;13302;48.796;11.978;2023-05-07T12:28:48;96888.94;;;20.27;35.73
25350;BME280;13302;48.796;11.978;2023-05-07T12:31:35;96895.38;;;20.27;35.42
25350;BME280;13302;48.796;11.978;2023-05-07T12:34:22;96893.34;;;20.28;35.38
25350;BME280;13302;48.796;11.978;2023-05-07T12:37:10;96897.34;;;20.30;35.16
25350;BME280;13302;48.796;11.978;2023-05-07T12:40:08;96877.69;;;20.30;35.16
25350;BME280;13302;48.796;11.978;2023-05-07T12:42:56;96878.06;;;20.32;34.89
25350;BME280;13302;48.796;11.978;2023-05-07T12:45:47;96879.25;;;20.35;34.97
25350;BME280;13302;48.796;11.978;2023-05-07T12:48:38;96871.19;;;20.37;35.15
25350;BME280;13302;48.796;11.978;2023-05-07T12:51:27;96872.00;;;20.37;34.71
25350;BME280;13302;48.796;11.978;2023-05-07T12:54:37;96867.19;;;20.38;34.93
25350;BME280;13302;48.796;11.978;2023-05-07T12:57:24;96862.31;;;20.42;34.83
25350;BME280;13302;48.796;11.978;2023-05-07T13:00:12;96859.47;;;20.45;34.95
25350;BME280;13302;48.796;11.978;2023-05-07T13:02:59;96861.88;;;20.50;34.99
25350;BME280;13302;48.796;11.978;2023-05-07T13:05:46;96851.81;;;20.53;34.51
25350;BME280;13302;48.796;11.978;2023-05-07T13:08:36;96854.22;;;20.54;34.46
25350;BME280;13302;48.796;11.978;2023-05-07T13:11:24;96853.81;;;20.56;34.41
25350;BME280;13302;48.796;11.978;2023-05-07T13:14:12;96840.91;;;20.58;34.51
25350;BME280;13302;48.796;11.978;2023-05-07T13:16:59;96839.31;;;20.57;34.03
25350;BME280;13302;48.796;11.978;2023-05-07T13:19:46;96837.31;;;20.58;33.98
25350;BME280;13302;48.796;11.978;2023-05-07T13:22:33;96835.31;;;20.58;33.96
25350;BME280;13302;48.796;11.978;2023-05-07T13:25:20;96835.31;;;20.58;33.96
25350;BME280;13302;48.796;11.978;2023-05-07T13:28:07;96840.91;;;20.58;33.90
25350;BME280;13302;48.796;11.978;2023-05-07T13:30:57;96836.91;;;20.59;33.79
25350;BME280;13302;48.796;11.978;2023-05-07T13:33:44;96832.09;;;20.60;33.90
25350;BME280;13302;48.796;11.978;2023-05-07T13:36:31;96830.09;;;20.60;33.97
25350;BME280;13302;48.796;11.978;2023-05-07T13:39:22;96837.66;;;20.63;33.94
25350;BME280;13302;48.796;11.978;2023-05-07T13:42:09;96837.22;;;20.65;33.78
25350;BME280;13302;48.796;11.978;2023-05-07T13:44:56;96832.00;;;20.67;33.79
25350;BME280;13302;48.796;11.978;2023-05-07T13:47:44;96822.72;;;20.70;33.83
25350;BME280;13302;48.796;11.978;2023-05-07T13:50:32;96823.91;;;20.73;33.73
25350;BME280;13302;48.796;11.978;2023-05-07T13:53:19;96820.25;;;20.76;34.02
25350;BME280;13302;48.796;11.978;2023-05-07T13:56:06;96815.44;;;20.76;33.70
25350;BME280;13302;48.796;11.978;2023-05-07T13:58:53;96831.06;;;20.77;33.96
25350;BME280;13302;48.796;11.978;2023-05-07T14:01:46;96815.81;;;20.78;33.69
25350;BME280;13302;48.796;11.978;2023-05-07T14:04:34;96822.22;;;20.79;33.71
25350;BME280;13302;48.796;11.978;2023-05-07T14:07:21;96821.44;;;20.78;33.34
25350;BME280;13302;48.796;11.978;2023-05-07T14:10:08;96826.69;;;20.76;33.61
25350;BME280;13302;48.796;11.978;2023-05-07T14:12:56;96831.06;;;20.77;33.56
25350;BME280;13302;48.796;11.978;2023-05-07T14:15:44;96827.91;;;20.75;33.22
25350;BME280;13302;48.796;11.978;2023-05-07T14:18:35;96829.50;;;20.76;33.26
25350;BME280;13302;48.796;11.978;2023-05-07T14:21:24;96826.28;;;20.74;33.12
25350;BME280;13302;48.796;11.978;2023-05-07T14:24:11;96820.25;;;20.76;33.20
25350;BME280;13302;48.796;11.978;2023-05-07T14:26:58;96825.50;;;20.74;33.12
25350;BME280;13302;48.796;11.978;2023-05-07T14:29:45;96830.31;;;20.73;32.98
25350;BME280;13302;48.796;11.978;2023-05-07T14:32:33;96827.94;;;20.72;32.90
25350;BME280;13302;48.796;11.978;2023-05-07T14:35:20;96825.53;;;20.70;32.72
25350;BME280;13302;48.796;11.978;2023-05-07T14:38:07;96823.16;;;20.69;32.74
25350;BME280;13302;48.796;11.978;2023-05-07T14:40:54;96826.38;;;20.67;32.71
25350;BME280;13302;48.796;11.978;2023-05-07T14:43:43;96824.78;;;20.66;32.70
25350;BME280;13302;48.796;11.978;2023-05-07T14:46:30;96834.41;;;20.65;32.96
25350;BME280;13302;48.796;11.978;2023-05-07T14:49:17;96824.81;;;20.62;32.68
25350;BME280;13302;48.796;11.978;2023-05-07T14:52:04;96831.66;;;20.61;32.69
25350;BME280;13302;48.796;11.978;2023-05-07T14:54:53;96834.94;;;20.56;32.61
25350;BME280;13302;48.796;11.978;2023-05-07T14:57:40;96834.53;;;20.54;32.47
25350;BME280;13302;48.796;11.978;2023-05-07T15:00:28;96830.13;;;20.53;32.85
25350;BME280;13302;48.796;11.978;2023-05-07T15:03:15;96831.38;;;20.52;32.78
25350;BME280;13302;48.796;11.978;2023-05-07T15:06:04;96826.53;;;20.53;32.84
25350;BME280;13302;48.796;11.978;2023-05-07T15:08:51;96830.56;;;20.52;32.73
25350;BME280;13302;48.796;11.978;2023-05-07T15:11:38;96831.38;;;20.49;32.75